sensor_id;sensor_type;location;lat;lon;timestamp;P1;durP1;ratioP1;P2;durP2;ratioP2
20042;SDS011;10182;52.896;6.496;2022-08-30T00:00:53;13.30;;;8.63;;
20042;SDS011;10182;52.896;6.496;2022-08-30T00:06:05;9.40;;;8.23;;
20042;SDS011;10182;52.896;6.496;2022-08-30T00:11:10;10.57;;;9.17;;
20042;SDS011;10182;52.896;6.496;2022-08-30T00:16:15;10.87;;;8.97;;
20042;SDS011;10182;52.896;6.496;2022-08-30T00:21:18;9.93;;;9.00;;
20042;SDS011;10182;52.896;6.496;2022-08-30T00:26:19;10.57;;;9.50;;
20042;SDS011;10182;52.896;6.496;2022-08-30T00:31:22;10.70;;;9.60;;
20042;SDS011;10182;52.896;6.496;2022-08-30T00:36:24;9.43;;;8.40;;
20042;SDS011;10182;52.896;6.496;2022-08-30T00:41:26;10.73;;;9.70;;
20042;SDS011;10182;52.896;6.496;2022-08-30T00:46:29;11.70;;;8.53;;
20042;SDS011;10182;52.896;6.496;2022-08-30T00:51:31;9.83;;;8.90;;
20042;SDS011;10182;52.896;6.496;2022-08-30T00:56:33;10.40;;;8.10;;
20042;SDS011;10182;52.896;6.496;2022-08-30T01:01:37;12.33;;;9.80;;
20042;SDS011;10182;52.896;6.496;2022-08-30T01:06:39;15.47;;;8.67;;
20042;SDS011;10182;52.896;6.496;2022-08-30T01:11:41;8.87;;;7.30;;
20042;SDS011;10182;52.896;6.496;2022-08-30T01:16:46;9.80;;;8.43;;
20042;SDS011;10182;52.896;6.496;2022-08-30T01:21:49;8.53;;;7.73;;
20042;SDS011;10182;52.896;6.496;2022-08-30T01:26:58;10.83;;;8.63;;
20042;SDS011;10182;52.896;6.496;2022-08-30T01:31:59;11.80;;;8.60;;
20042;SDS011;10182;52.896;6.496;2022-08-30T01:37:01;12.60;;;8.40;;
20042;SDS011;10182;52.896;6.496;2022-08-30T01:42:04;8.90;;;8.10;;
20042;SDS011;10182;52.896;6.496;2022-08-30T01:47:06;10.00;;;7.50;;
20042;SDS011;10182;52.896;6.496;2022-08-30T01:52:07;9.03;;;7.30;;
20042;SDS011;10182;52.896;6.496;2022-08-30T01:57:12;7.57;;;6.60;;
20042;SDS011;10182;52.896;6.496;2022-08-30T02:02:17;8.63;;;6.80;;
20042;SDS011;10182;52.896;6.496;2022-08-30T02:07:22;8.43;;;6.27;;
20042;SDS011;10182;52.896;6.496;2022-08-30T02:12:25;7.07;;;6.27;;
20042;SDS011;10182;52.896;6.496;2022-08-30T02:17:29;8.80;;;6.90;;
20042;SDS011;10182;52.896;6.496;2022-08-30T02:22:32;14.10;;;6.90;;
20042;SDS011;10182;52.896;6.496;2022-08-30T02:27:36;6.87;;;6.17;;
20042;SDS011;10182;52.896;6.496;2022-08-30T02:32:37;9.17;;;6.13;;
20042;SDS011;10182;52.896;6.496;2022-08-30T02:37:40;8.07;;;6.17;;
20042;SDS011;10182;52.896;6.496;2022-08-30T02:42:43;6.27;;;5.37;;
20042;SDS011;10182;52.896;6.496;2022-08-30T02:47:45;9.77;;;6.70;;
20042;SDS011;10182;52.896;6.496;2022-08-30T02:52:46;7.47;;;6.50;;
20042;SDS011;10182;52.896;6.496;2022-08-30T02:57:49;9.67;;;7.23;;
20042;SDS011;10182;52.896;6.496;2022-08-30T03:02:51;7.10;;;6.40;;
20042;SDS011;10182;52.896;6.496;2022-08-30T03:07:53;7.23;;;6.50;;
20042;SDS011;10182;52.896;6.496;2022-08-30T03:12:56;8.30;;;6.33;;
20042;SDS011;10182;52.896;6.496;2022-08-30T03:17:57;9.97;;;7.63;;
20042;SDS011;10182;52.896;6.496;2022-08-30T03:22:59;7.67;;;6.90;;
20042;SDS011;10182;52.896;6.496;2022-08-30T03:28:02;8.30;;;6.70;;
20042;SDS011;10182;52.896;6.496;2022-08-30T03:33:04;6.60;;;6.00;;
20042;SDS011;10182;52.896;6.496;2022-08-30T03:38:06;7.90;;;7.20;;
20042;SDS011;10182;52.896;6.496;2022-08-30T03:43:09;8.17;;;7.30;;
20042;SDS011;10182;52.896;6.496;2022-08-30T03:48:11;8.33;;;7.17;;
20042;SDS011;10182;52.896;6.496;2022-08-30T03:53:13;10.03;;;9.03;;
20042;SDS011;10182;52.896;6.496;2022-08-30T03:58:16;12.57;;;7.97;;
20042;SDS011;10182;52.896;6.496;2022-08-30T04:03:17;7.70;;;7.10;;
20042;SDS011;10182;52.896;6.496;2022-08-30T04:08:24;7.00;;;6.30;;
20042;SDS011;10182;52.896;6.496;2022-08-30T04:13:28;8.37;;;7.67;;
20042;SDS011;10182;52.896;6.496;2022-08-30T04:18:30;7.73;;;7.00;;
20042;SDS011;10182;52.896;6.496;2022-08-30T04:23:31;8.40;;;7.70;;
20042;SDS011;10182;52.896;6.496;2022-08-30T04:28:34;8.63;;;7.57;;
20042;SDS011;10182;52.896;6.496;2022-08-30T04:33:36;9.77;;;8.67;;
20042;SDS011;10182;52.896;6.496;2022-08-30T04:38:38;11.47;;;8.90;;
20042;SDS011;10182;52.896;6.496;2022-08-30T04:43:43;11.43;;;10.27;;
20042;SDS011;10182;52.896;6.496;2022-08-30T04:48:45;14.40;;;11.37;;
20042;SDS011;10182;52.896;6.496;2022-08-30T04:53:47;13.57;;;12.30;;
20042;SDS011;10182;52.896;6.496;2022-08-30T04:58:51;13.37;;;12.03;;
20042;SDS011;10182;52.896;6.496;2022-08-30T05:03:54;14.60;;;12.17;;
20042;SDS011;10182;52.896;6.496;2022-08-30T05:08:57;12.40;;;11.20;;
20042;SDS011;10182;52.896;6.496;2022-08-30T05:14:01;15.90;;;12.23;;
20042;SDS011;10182;52.896;6.496;2022-08-30T05:19:02;12.87;;;11.57;;
20042;SDS011;10182;52.896;6.496;2022-08-30T05:24:04;14.67;;;11.93;;
20042;SDS011;10182;52.896;6.496;2022-08-30T05:29:07;15.97;;;11.53;;
20042;SDS011;10182;52.896;6.496;2022-08-30T05:34:09;12.27;;;11.17;;
20042;SDS011;10182;52.896;6.496;2022-08-30T05:39:11;13.23;;;11.83;;
20042;SDS011;10182;52.896;6.496;2022-08-30T05:44:14;11.97;;;10.87;;
20042;SDS011;10182;52.896;6.496;2022-08-30T05:49:16;12.93;;;10.53;;
20042;SDS011;10182;52.896;6.496;2022-08-30T05:54:18;12.17;;;9.80;;
20042;SDS011;10182;52.896;6.496;2022-08-30T05:59:21;12.83;;;8.53;;
20042;SDS011;10182;52.896;6.496;2022-08-30T06:04:22;12.03;;;8.60;;
20042;SDS011;10182;52.896;6.496;2022-08-30T06:09:24;10.03;;;7.70;;
20042;SDS011;10182;52.896;6.496;2022-08-30T06:14:28;8.13;;;6.63;;
20042;SDS011;10182;52.896;6.496;2022-08-30T06:19:29;7.47;;;6.63;;
20042;SDS011;10182;52.896;6.496;2022-08-30T06:24:31;11.23;;;6.33;;
20042;SDS011;10182;52.896;6.496;2022-08-30T06:29:36;9.97;;;5.63;;
20042;SDS011;10182;52.896;6.496;2022-08-30T06:34:38;5.90;;;5.00;;
20042;SDS011;10182;52.896;6.496;2022-08-30T06:39:40;5.93;;;4.87;;
20042;SDS011;10182;52.896;6.496;2022-08-30T06:44:43;6.83;;;4.07;;
20042;SDS011;10182;52.896;6.496;2022-08-30T06:49:44;8.03;;;4.10;;
20042;SDS011;10182;52.896;6.496;2022-08-30T06:54:46;6.53;;;4.27;;
20042;SDS011;10182;52.896;6.496;2022-08-30T06:59:52;7.00;;;3.10;;
20042;SDS011;10182;52.896;6.496;2022-08-30T07:04:55;3.83;;;2.97;;
20042;SDS011;10182;52.896;6.496;2022-08-30T07:09:57;3.83;;;2.40;;
20042;SDS011;10182;52.896;6.496;2022-08-30T07:15:00;4.10;;;2.30;;
20042;SDS011;10182;52.896;6.496;2022-08-30T07:20:02;6.83;;;2.33;;
20042;SDS011;10182;52.896;6.496;2022-08-30T07:25:04;4.40;;;2.30;;
20042;SDS011;10182;52.896;6.496;2022-08-30T07:30:08;5.33;;;2.10;;
20042;SDS011;10182;52.896;6.496;2022-08-30T07:35:10;4.33;;;2.00;;
20042;SDS011;10182;52.896;6.496;2022-08-30T07:40:12;1.90;;;1.70;;
20042;SDS011;10182;52.896;6.496;2022-08-30T07:45:15;2.70;;;1.70;;
20042;SDS011;10182;52.896;6.496;2022-08-30T07:50:17;4.80;;;1.97;;
20042;SDS011;10182;52.896;6.496;2022-08-30T07:55:19;5.20;;;1.60;;
20042;SDS011;10182;52.896;6.496;2022-08-30T08:00:23;3.73;;;1.57;;
20042;SDS011;10182;52.896;6.496;2022-08-30T08:05:25;3.57;;;1.23;;
20042;SDS011;10182;52.896;6.496;2022-08-30T08:10:26;2.03;;;1.30;;
20042;SDS011;10182;52.896;6.496;2022-08-30T08:15:29;1.43;;;1.20;;
20042;SDS011;10182;52.896;6.496;2022-08-30T08:20:32;2.07;;;1.47;;
20042;SDS011;10182;52.896;6.496;2022-08-30T08:25:37;4.90;;;1.40;;
20042;SDS011;10182;52.896;6.496;2022-08-30T08:30:41;3.57;;;1.47;;
20042;SDS011;10182;52.896;6.496;2022-08-30T08:35:43;1.10;;;1.00;;
20042;SDS011;10182;52.896;6.496;2022-08-30T08:40:48;1.93;;;1.30;;
20042;SDS011;10182;52.896;6.496;2022-08-30T08:45:59;1.37;;;1.13;;
20042;SDS011;10182;52.896;6.496;2022-08-30T08:51:06;1.50;;;1.00;;
20042;SDS011;10182;52.896;6.496;2022-08-30T08:56:28;2.80;;;1.20;;
20042;SDS011;10182;52.896;6.496;2022-08-30T09:01:31;4.50;;;1.47;;
20042;SDS011;10182;52.896;6.496;2022-08-30T09:06:45;2.23;;;1.50;;
20042;SDS011;10182;52.896;6.496;2022-08-30T09:11:51;1.80;;;1.20;;
20042;SDS011;10182;52.896;6.496;2022-08-30T09:16:58;1.83;;;1.00;;
20042;SDS011;10182;52.896;6.496;2022-08-30T09:22:04;3.33;;;1.03;;
20042;SDS011;10182;52.896;6.496;2022-08-30T09:27:19;2.73;;;1.00;;
20042;SDS011;10182;52.896;6.496;2022-08-30T09:32:28;1.63;;;0.93;;
20042;SDS011;10182;52.896;6.496;2022-08-30T09:37:34;2.03;;;1.40;;
20042;SDS011;10182;52.896;6.496;2022-08-30T09:42:39;2.40;;;1.07;;
20042;SDS011;10182;52.896;6.496;2022-08-30T09:47:43;1.23;;;0.93;;
20042;SDS011;10182;52.896;6.496;2022-08-30T09:52:48;1.87;;;0.90;;
20042;SDS011;10182;52.896;6.496;2022-08-30T09:57:59;5.03;;;1.47;;
20042;SDS011;10182;52.896;6.496;2022-08-30T10:03:19;2.83;;;0.97;;
20042;SDS011;10182;52.896;6.496;2022-08-30T10:08:29;2.67;;;1.00;;
20042;SDS011;10182;52.896;6.496;2022-08-30T10:13:45;1.93;;;1.00;;
20042;SDS011;10182;52.896;6.496;2022-08-30T10:19:02;1.93;;;0.93;;
20042;SDS011;10182;52.896;6.496;2022-08-30T10:24:16;3.13;;;0.90;;
20042;SDS011;10182;52.896;6.496;2022-08-30T10:29:24;1.57;;;1.10;;
20042;SDS011;10182;52.896;6.496;2022-08-30T10:34:31;3.07;;;1.20;;
20042;SDS011;10182;52.896;6.496;2022-08-30T10:39:40;3.80;;;1.10;;
20042;SDS011;10182;52.896;6.496;2022-08-30T10:44:48;1.37;;;0.80;;
20042;SDS011;10182;52.896;6.496;2022-08-30T10:49:59;2.33;;;1.07;;
20042;SDS011;10182;52.896;6.496;2022-08-30T10:55:09;3.27;;;0.97;;
20042;SDS011;10182;52.896;6.496;2022-08-30T11:00:15;4.13;;;1.30;;
20042;SDS011;10182;52.896;6.496;2022-08-30T11:05:38;2.00;;;0.87;;
20042;SDS011;10182;52.896;6.496;2022-08-30T11:10:58;3.10;;;1.17;;
20042;SDS011;10182;52.896;6.496;2022-08-30T11:16:07;1.47;;;0.90;;
20042;SDS011;10182;52.896;6.496;2022-08-30T11:21:23;2.90;;;1.10;;
20042;SDS011;10182;52.896;6.496;2022-08-30T11:31:59;1.90;;;0.93;;
20042;SDS011;10182;52.896;6.496;2022-08-30T11:37:31;2.07;;;1.13;;
20042;SDS011;10182;52.896;6.496;2022-08-30T11:42:40;1.67;;;1.00;;
20042;SDS011;10182;52.896;6.496;2022-08-30T11:47:44;1.27;;;1.07;;
20042;SDS011;10182;52.896;6.496;2022-08-30T11:52:52;2.37;;;1.10;;
20042;SDS011;10182;52.896;6.496;2022-08-30T11:58:04;2.37;;;1.00;;
20042;SDS011;10182;52.896;6.496;2022-08-30T12:03:27;1.30;;;1.10;;
20042;SDS011;10182;52.896;6.496;2022-08-30T12:08:44;0.87;;;0.87;;
20042;SDS011;10182;52.896;6.496;2022-08-30T12:13:52;1.30;;;1.10;;
20042;SDS011;10182;52.896;6.496;2022-08-30T12:18:55;2.93;;;1.20;;
20042;SDS011;10182;52.896;6.496;2022-08-30T12:24:06;1.33;;;1.03;;
20042;SDS011;10182;52.896;6.496;2022-08-30T12:29:17;1.63;;;1.00;;
20042;SDS011;10182;52.896;6.496;2022-08-30T12:34:22;1.00;;;0.90;;
20042;SDS011;10182;52.896;6.496;2022-08-30T12:39:28;1.50;;;1.20;;
20042;SDS011;10182;52.896;6.496;2022-08-30T12:44:32;1.17;;;0.63;;
20042;SDS011;10182;52.896;6.496;2022-08-30T12:49:34;1.30;;;0.83;;
20042;SDS011;10182;52.896;6.496;2022-08-30T12:54:39;1.07;;;0.63;;
20042;SDS011;10182;52.896;6.496;2022-08-30T12:59:42;1.47;;;0.87;;
20042;SDS011;10182;52.896;6.496;2022-08-30T13:04:46;2.03;;;0.83;;
20042;SDS011;10182;52.896;6.496;2022-08-30T13:09:57;2.37;;;1.00;;
20042;SDS011;10182;52.896;6.496;2022-08-30T13:15:14;1.80;;;1.00;;
20042;SDS011;10182;52.896;6.496;2022-08-30T13:20:24;1.30;;;0.90;;
20042;SDS011;10182;52.896;6.496;2022-08-30T13:25:27;1.73;;;0.80;;
20042;SDS011;10182;52.896;6.496;2022-08-30T13:30:30;1.77;;;0.90;;
20042;SDS011;10182;52.896;6.496;2022-08-30T13:35:32;2.30;;;0.80;;
20042;SDS011;10182;52.896;6.496;2022-08-30T13:40:35;2.17;;;0.50;;
20042;SDS011;10182;52.896;6.496;2022-08-30T13:45:37;5.50;;;2.90;;
20042;SDS011;10182;52.896;6.496;2022-08-30T13:50:39;1.80;;;1.07;;
20042;SDS011;10182;52.896;6.496;2022-08-30T13:55:43;1.20;;;0.80;;
20042;SDS011;10182;52.896;6.496;2022-08-30T14:00:45;2.67;;;0.80;;
20042;SDS011;10182;52.896;6.496;2022-08-30T14:05:47;1.27;;;0.83;;
20042;SDS011;10182;52.896;6.496;2022-08-30T14:10:50;2.60;;;0.80;;
20042;SDS011;10182;52.896;6.496;2022-08-30T14:15:51;2.43;;;0.80;;
20042;SDS011;10182;52.896;6.496;2022-08-30T14:20:53;3.00;;;0.70;;
20042;SDS011;10182;52.896;6.496;2022-08-30T14:25:57;2.37;;;0.80;;
20042;SDS011;10182;52.896;6.496;2022-08-30T14:31:01;1.20;;;0.80;;
20042;SDS011;10182;52.896;6.496;2022-08-30T14:36:03;1.93;;;0.87;;
20042;SDS011;10182;52.896;6.496;2022-08-30T14:41:07;4.47;;;0.83;;
20042;SDS011;10182;52.896;6.496;2022-08-30T14:46:09;1.83;;;0.70;;
20042;SDS011;10182;52.896;6.496;2022-08-30T14:51:11;2.83;;;0.87;;
20042;SDS011;10182;52.896;6.496;2022-08-30T14:56:17;5.83;;;0.90;;
20042;SDS011;10182;52.896;6.496;2022-08-30T15:01:19;0.87;;;0.80;;
20042;SDS011;10182;52.896;6.496;2022-08-30T15:06:22;1.10;;;0.73;;
20042;SDS011;10182;52.896;6.496;2022-08-30T15:11:25;3.87;;;1.30;;
20042;SDS011;10182;52.896;6.496;2022-08-30T15:16:29;3.80;;;0.97;;
20042;SDS011;10182;52.896;6.496;2022-08-30T15:21:32;3.33;;;0.80;;
20042;SDS011;10182;52.896;6.496;2022-08-30T15:26:37;1.20;;;1.00;;
20042;SDS011;10182;52.896;6.496;2022-08-30T15:31:43;1.57;;;0.90;;
20042;SDS011;10182;52.896;6.496;2022-08-30T15:36:46;2.53;;;0.97;;
20042;SDS011;10182;52.896;6.496;2022-08-30T15:41:50;2.67;;;0.90;;
20042;SDS011;10182;52.896;6.496;2022-08-30T15:46:53;3.17;;;1.13;;
20042;SDS011;10182;52.896;6.496;2022-08-30T15:51:54;2.77;;;0.97;;
20042;SDS011;10182;52.896;6.496;2022-08-30T15:57:02;2.60;;;1.00;;
20042;SDS011;10182;52.896;6.496;2022-08-30T16:02:03;2.47;;;0.90;;
20042;SDS011;10182;52.896;6.496;2022-08-30T16:07:05;2.17;;;1.20;;
20042;SDS011;10182;52.896;6.496;2022-08-30T16:12:09;1.93;;;1.13;;
20042;SDS011;10182;52.896;6.496;2022-08-30T16:17:10;2.27;;;0.90;;
20042;SDS011;10182;52.896;6.496;2022-08-30T16:22:12;4.47;;;1.60;;
20042;SDS011;10182;52.896;6.496;2022-08-30T16:27:15;0.80;;;0.70;;
20042;SDS011;10182;52.896;6.496;2022-08-30T16:32:17;1.93;;;0.90;;
20042;SDS011;10182;52.896;6.496;2022-08-30T16:37:19;2.47;;;1.00;;
20042;SDS011;10182;52.896;6.496;2022-08-30T16:42:22;1.37;;;0.90;;
20042;SDS011;10182;52.896;6.496;2022-08-30T16:47:23;1.80;;;1.00;;
20042;SDS011;10182;52.896;6.496;2022-08-30T16:52:25;1.67;;;0.90;;
20042;SDS011;10182;52.896;6.496;2022-08-30T16:57:28;1.00;;;0.90;;
20042;SDS011;10182;52.896;6.496;2022-08-30T17:02:30;1.57;;;1.00;;
20042;SDS011;10182;52.896;6.496;2022-08-30T17:07:31;2.63;;;1.30;;
20042;SDS011;10182;52.896;6.496;2022-08-30T17:12:35;1.43;;;1.17;;
20042;SDS011;10182;52.896;6.496;2022-08-30T17:17:37;2.80;;;1.70;;
20042;SDS011;10182;52.896;6.496;2022-08-30T17:22:39;3.87;;;1.73;;
20042;SDS011;10182;52.896;6.496;2022-08-30T17:27:42;5.40;;;1.67;;
20042;SDS011;10182;52.896;6.496;2022-08-30T17:32:44;3.53;;;1.90;;
20042;SDS011;10182;52.896;6.496;2022-08-30T17:37:46;3.47;;;1.77;;
20042;SDS011;10182;52.896;6.496;2022-08-30T17:42:50;3.07;;;1.53;;
20042;SDS011;10182;52.896;6.496;2022-08-30T17:47:52;2.70;;;1.00;;
20042;SDS011;10182;52.896;6.496;2022-08-30T17:52:54;4.17;;;1.27;;
20042;SDS011;10182;52.896;6.496;2022-08-30T17:57:57;3.10;;;1.50;;
20042;SDS011;10182;52.896;6.496;2022-08-30T18:02:58;1.53;;;0.90;;
20042;SDS011;10182;52.896;6.496;2022-08-30T18:08:00;2.70;;;1.27;;
20042;SDS011;10182;52.896;6.496;2022-08-30T18:13:04;3.50;;;1.30;;
20042;SDS011;10182;52.896;6.496;2022-08-30T18:18:05;2.80;;;1.30;;
20042;SDS011;10182;52.896;6.496;2022-08-30T18:23:07;3.43;;;1.33;;
20042;SDS011;10182;52.896;6.496;2022-08-30T18:28:10;2.03;;;1.13;;
20042;SDS011;10182;52.896;6.496;2022-08-30T18:33:12;2.13;;;1.10;;
20042;SDS011;10182;52.896;6.496;2022-08-30T18:38:14;4.33;;;1.23;;
20042;SDS011;10182;52.896;6.496;2022-08-30T18:43:17;2.07;;;1.33;;
20042;SDS011;10182;52.896;6.496;2022-08-30T18:48:18;2.27;;;1.30;;
20042;SDS011;10182;52.896;6.496;2022-08-30T18:53:20;2.83;;;1.40;;
20042;SDS011;10182;52.896;6.496;2022-08-30T18:58:24;3.17;;;1.50;;
20042;SDS011;10182;52.896;6.496;2022-08-30T19:03:25;2.77;;;1.60;;
20042;SDS011;10182;52.896;6.496;2022-08-30T19:08:28;2.97;;;1.37;;
20042;SDS011;10182;52.896;6.496;2022-08-30T19:13:31;1.47;;;1.23;;
20042;SDS011;10182;52.896;6.496;2022-08-30T19:18:33;3.70;;;1.03;;
20042;SDS011;10182;52.896;6.496;2022-08-30T19:23:36;2.27;;;1.03;;
20042;SDS011;10182;52.896;6.496;2022-08-30T19:28:39;2.17;;;1.20;;
20042;SDS011;10182;52.896;6.496;2022-08-30T19:33:41;2.60;;;1.17;;
20042;SDS011;10182;52.896;6.496;2022-08-30T19:38:42;1.87;;;0.90;;
20042;SDS011;10182;52.896;6.496;2022-08-30T19:43:45;6.00;;;1.07;;
20042;SDS011;10182;52.896;6.496;2022-08-30T19:48:47;0.90;;;0.80;;
20042;SDS011;10182;52.896;6.496;2022-08-30T19:53:49;3.63;;;1.10;;
20042;SDS011;10182;52.896;6.496;2022-08-30T19:58:52;3.60;;;1.30;;
20042;SDS011;10182;52.896;6.496;2022-08-30T20:03:53;2.87;;;1.53;;
20042;SDS011;10182;52.896;6.496;2022-08-30T20:08:56;4.57;;;1.40;;
20042;SDS011;10182;52.896;6.496;2022-08-30T20:13:59;1.77;;;1.60;;
20042;SDS011;10182;52.896;6.496;2022-08-30T20:19:01;2.53;;;1.40;;
20042;SDS011;10182;52.896;6.496;2022-08-30T20:24:03;2.77;;;1.50;;
20042;SDS011;10182;52.896;6.496;2022-08-30T20:29:06;2.77;;;1.73;;
20042;SDS011;10182;52.896;6.496;2022-08-30T20:34:08;2.17;;;1.53;;
20042;SDS011;10182;52.896;6.496;2022-08-30T20:39:10;1.47;;;1.20;;
20042;SDS011;10182;52.896;6.496;2022-08-30T20:44:13;2.03;;;1.10;;
20042;SDS011;10182;52.896;6.496;2022-08-30T20:49:15;1.80;;;1.20;;
20042;SDS011;10182;52.896;6.496;2022-08-30T20:54:18;3.77;;;0.80;;
20042;SDS011;10182;52.896;6.496;2022-08-30T20:59:21;4.03;;;0.90;;
20042;SDS011;10182;52.896;6.496;2022-08-30T21:04:23;2.13;;;0.87;;
20042;SDS011;10182;52.896;6.496;2022-08-30T21:09:25;2.30;;;0.60;;
20042;SDS011;10182;52.896;6.496;2022-08-30T21:14:28;3.37;;;0.80;;
20042;SDS011;10182;52.896;6.496;2022-08-30T21:19:30;3.40;;;1.00;;
20042;SDS011;10182;52.896;6.496;2022-08-30T21:24:31;3.53;;;0.70;;
20042;SDS011;10182;52.896;6.496;2022-08-30T21:29:35;1.73;;;0.63;;
20042;SDS011;10182;52.896;6.496;2022-08-30T21:34:38;3.17;;;0.97;;
20042;SDS011;10182;52.896;6.496;2022-08-30T21:39:54;1.27;;;0.50;;
20042;SDS011;10182;52.896;6.496;2022-08-30T21:44:57;3.23;;;1.07;;
20042;SDS011;10182;52.896;6.496;2022-08-30T21:49:59;2.00;;;0.87;;
20042;SDS011;10182;52.896;6.496;2022-08-30T21:55:00;2.57;;;0.70;;
20042;SDS011;10182;52.896;6.496;2022-08-30T22:00:04;3.47;;;1.10;;
20042;SDS011;10182;52.896;6.496;2022-08-30T22:05:07;3.37;;;1.20;;
20042;SDS011;10182;52.896;6.496;2022-08-30T22:10:10;2.43;;;0.80;;
20042;SDS011;10182;52.896;6.496;2022-08-30T22:15:13;0.97;;;0.50;;
20042;SDS011;10182;52.896;6.496;2022-08-30T22:20:15;2.10;;;0.60;;
20042;SDS011;10182;52.896;6.496;2022-08-30T22:25:17;1.57;;;0.87;;
20042;SDS011;10182;52.896;6.496;2022-08-30T22:30:20;2.63;;;0.60;;
20042;SDS011;10182;52.896;6.496;2022-08-30T22:35:22;1.43;;;0.60;;
20042;SDS011;10182;52.896;6.496;2022-08-30T22:40:24;1.27;;;0.60;;
20042;SDS011;10182;52.896;6.496;2022-08-30T22:45:27;1.13;;;0.63;;
20042;SDS011;10182;52.896;6.496;2022-08-30T22:50:30;1.03;;;0.53;;
20042;SDS011;10182;52.896;6.496;2022-08-30T22:55:32;1.30;;;0.70;;
20042;SDS011;10182;52.896;6.496;2022-08-30T23:00:36;2.77;;;0.80;;
20042;SDS011;10182;52.896;6.496;2022-08-30T23:05:39;2.00;;;0.70;;
20042;SDS011;10182;52.896;6.496;2022-08-30T23:10:41;1.60;;;0.70;;
20042;SDS011;10182;52.896;6.496;2022-08-30T23:28:07;1.17;;;0.60;;
20042;SDS011;10182;52.896;6.496;2022-08-30T23:33:49;1.83;;;0.63;;
20042;SDS011;10182;52.896;6.496;2022-08-30T23:39:08;0.80;;;0.67;;
20042;SDS011;10182;52.896;6.496;2022-08-30T23:44:29;0.70;;;0.60;;
20042;SDS011;10182;52.896;6.496;2022-08-30T23:49:48;1.50;;;0.90;;
20042;SDS011;10182;52.896;6.496;2022-08-30T23:55:07;1.23;;;0.60;;
